Terminal Aerodrome Forecast
Issued by NWS Missoula, MT

Current Version | Previous Version | Text Only | Print | Product List | Glossary On
Versions: 1 2 3 4 5 6 7 8 9 10 11 12 13 14 15 16 17 18 19 20 21 22 23 24 25
000
FTUS45 KMSO 251720
TAFBTM
TAF
KBTM 251720Z 2518/2618 24007G15KT P6SM SCT050 OVC090 WS020/29040KT
     FM252000 23015G28KT P6SM VCSH OVC080
     FM260400 25010KT 3SM -SN BKN020 OVC030
     FM261000 28010KT P6SM VCSH BKN030 OVC050=

USA.gov is the U.S. government's official web portal to all federal, state and local government web resources and services.